^^
Station Historical Data
Daily Summary for November 9, 2017 Units:  Metric    English   Both
« Previous Day
Next Day »
Daily Weekly Monthly Yearly Custom
  High: Low: Average:
Temperature: 30.5 °C 15.7 °C 21.2 °C
Dew Point: 9.2 °C -11.9 °C 2.2 °C
Humidity: 57% 6% 34%
Wind Speed: 28.8km/h 0km/h 10.8km/h
Wind Gust: 33.8km/h - -
Wind- - SSW
Pressure: 1008.4 hPa 1004.3 hPa -
Precipitation: 0 mm    
Historical Graphs
 
 
Tabular Data for November 9, 2017
Time Temperature Dew Point Pressure Wind Wind Speed Wind Gust Humidity Rainfall Rate (Hourly) solar Conditions
00:04 19.8 °C 9.1 °C 1006.3 hPa SSW 11.1 km/h 16.1 km/h 50% 0 mm 0.0 W/m2
00:14 19.6 °C 9.2 °C 1006.3 hPa SSW 17.7 km/h 17.7 km/h 51% 0 mm 0.0 W/m2
00:19 19.4 °C 9 °C 1006.3 hPa SW 13 km/h 19.3 km/h 51% 0 mm 0.0 W/m2
00:24 19.3 °C 9.2 °C 1006.3 hPa SW 14.3 km/h 17.7 km/h 52% 0 mm 0.0 W/m2
00:29 19.1 °C 9 °C 1006.3 hPa SW 14.3 km/h 17.7 km/h 52% 0 mm 0.0 W/m2
00:34 19 °C 8.9 °C 1006.3 hPa SW 19.5 km/h 19.5 km/h 52% 0 mm 0.0 W/m2
00:39 18.9 °C 9.1 °C 1006.3 hPa SW 13 km/h 16.1 km/h 53% 0 mm 0.0 W/m2
00:44 18.9 °C 9.1 °C 1006.3 hPa SW 11.1 km/h 17.7 km/h 53% 0 mm 0.0 W/m2
00:49 18.9 °C 9.1 °C 1006 hPa SW 14.3 km/h 19.3 km/h 53% 0 mm 0.0 W/m2
00:54 18.8 °C 9 °C 1006 hPa SW 11.1 km/h 17.7 km/h 53% 0 mm 0.0 W/m2
01:00 18.9 °C 8.8 °C 1006 hPa SW 14.3 km/h 14.5 km/h 52% 0 mm 0.0 W/m2
01:05 18.9 °C 8.8 °C 1006 hPa SW 13 km/h 14.5 km/h 52% 0 mm 0.0 W/m2
01:10 18.9 °C 8.8 °C 1006 hPa SW 14.3 km/h 16.1 km/h 52% 0 mm 0.0 W/m2
01:15 18.8 °C 8.7 °C 1005.6 hPa SW 17.7 km/h 19.3 km/h 52% 0 mm 0.0 W/m2
01:20 18.7 °C 8.6 °C 1005.6 hPa SW 11.1 km/h 16.1 km/h 52% 0 mm 0.0 W/m2
01:25 18.7 °C 8.6 °C 1005.6 hPa SW 13 km/h 14.5 km/h 52% 0 mm 0.0 W/m2
01:30 18.7 °C 8.1 °C 1005.6 hPa SW 7.9 km/h 12.9 km/h 50% 0 mm 0.0 W/m2
01:35 18.8 °C 8.2 °C 1005.6 hPa SW 13 km/h 16.1 km/h 50% 0 mm 0.0 W/m2
01:40 18.8 °C 8.2 °C 1006 hPa SW 9.7 km/h 14.5 km/h 50% 0 mm 0.0 W/m2
01:45 18.6 °C 8.6 °C 1006 hPa SW 11.1 km/h 12.9 km/h 52% 0 mm 0.0 W/m2
01:50 18.3 °C 8.6 °C 1005.6 hPa SW 13 km/h 14.5 km/h 53% 0 mm 0.0 W/m2
01:55 18.2 °C 8.5 °C 1005.6 hPa SW 13 km/h 16.1 km/h 53% 0 mm 0.0 W/m2
02:05 18 °C 8.6 °C 1005.6 hPa SW 9.7 km/h 12.9 km/h 54% 0 mm 0.0 W/m2
02:10 17.9 °C 8.5 °C 1005.6 hPa SW 7.9 km/h 11.3 km/h 54% 0 mm 0.0 W/m2
02:15 17.8 °C 8.6 °C 1005.6 hPa SW 9.7 km/h 11.3 km/h 55% 0 mm 0.0 W/m2
02:25 17.7 °C 8.5 °C 1005.6 hPa SW 6.4 km/h 11.3 km/h 55% 0 mm 0.0 W/m2
02:31 17.7 °C 8 °C 1005.6 hPa SW 7.9 km/h 11.3 km/h 53% 0 mm 0.0 W/m2
02:36 18 °C 7.4 °C 1005.6 hPa SW 9.7 km/h 12.9 km/h 50% 0 mm 0.0 W/m2
02:41 18.2 °C 7.9 °C 1005.6 hPa SW 9.7 km/h 9.7 km/h 51% 0 mm 0.0 W/m2
02:46 18.2 °C 7.3 °C 1005.6 hPa SW 7.9 km/h 11.3 km/h 49% 0 mm 0.0 W/m2
02:51 18.2 °C 7 °C 1005.6 hPa SW 7.9 km/h 9.7 km/h 48% 0 mm 0.0 W/m2
02:56 18.3 °C 6.5 °C 1005.6 hPa SW 9.7 km/h 12.9 km/h 46% 0 mm 0.0 W/m2
03:01 18.4 °C 6.3 °C 1005.6 hPa SW 6.4 km/h 11.3 km/h 45% 0 mm 0.0 W/m2
03:06 18.4 °C 5.9 °C 1005.6 hPa SW 7.9 km/h 16.1 km/h 44% 0 mm 0.0 W/m2
03:16 18.3 °C 5.5 °C 1005.6 hPa SW 11.1 km/h 14.5 km/h 43% 0 mm 0.0 W/m2
03:26 18.2 °C 5.1 °C 1005.6 hPa SW 14.3 km/h 19.3 km/h 42% 0 mm 0.0 W/m2
03:36 18.2 °C 5.1 °C 1005.6 hPa SSW 11.1 km/h 19.3 km/h 42% 0 mm 0.0 W/m2
03:41 18 °C 5.2 °C 1005.6 hPa SSW 11.1 km/h 16.1 km/h 43% 0 mm 0.0 W/m2
03:46 17.9 °C 5.1 °C 1005.6 hPa SSW 13 km/h 17.7 km/h 43% 0 mm 0.0 W/m2
03:51 17.8 °C 5.1 °C 1005.6 hPa SSW 17.7 km/h 17.7 km/h 43% 0 mm 0.0 W/m2
04:01 17.8 °C 5.4 °C 1005.6 hPa SSW 14.3 km/h 19.3 km/h 44% 0 mm 0.0 W/m2
04:06 17.7 °C 5.3 °C 1005.6 hPa SSW 17.7 km/h 17.7 km/h 44% 0 mm 0.0 W/m2
04:11 17.7 °C 5.6 °C 1005.6 hPa SSW 14.3 km/h 19.3 km/h 45% 0 mm 0.0 W/m2
04:16 17.6 °C 5.8 °C 1005.6 hPa SSW 9.7 km/h 17.7 km/h 46% 0 mm 0.0 W/m2
04:21 17.4 °C 5.7 °C 1005.6 hPa SSW 9.7 km/h 16.1 km/h 46% 0 mm 0.0 W/m2
04:26 17.3 °C 5.9 °C 1005.6 hPa SSW 9.7 km/h 14.5 km/h 47% 0 mm 0.0 W/m2
04:31 17.2 °C 6.1 °C 1005.6 hPa SSW 9.7 km/h 14.5 km/h 48% 0 mm 0.0 W/m2
04:37 17.1 °C 6.3 °C 1005.6 hPa SSW 13 km/h 14.5 km/h 49% 0 mm 0.0 W/m2
04:42 16.9 °C 6.4 °C 1005.6 hPa SSW 9.7 km/h 14.5 km/h 50% 0 mm 0.0 W/m2
04:52 16.8 °C 6.6 °C 1006 hPa SSW 7.9 km/h 11.3 km/h 51% 0 mm 0.0 W/m2
04:57 16.7 °C 6.8 °C 1006 hPa SSW 6.4 km/h 9.7 km/h 52% 0 mm 0.0 W/m2
05:02 16.6 °C 6.7 °C 1005.6 hPa SSW 4.7 km/h 6.4 km/h 52% 0 mm 0.0 W/m2
05:07 16.5 °C 6.6 °C 1006 hPa Calm     52% 0 mm 0.0 W/m2
05:22 16.2 °C 6.9 °C 1006 hPa Calm     54% 0 mm 0.0 W/m2
05:28 16 °C 7 °C 1006 hPa Calm     55% 0 mm 0.0 W/m2
05:33 15.9 °C 6.9 °C 1006 hPa Calm     55% 0 mm 0.0 W/m2
05:38 15.8 °C 7 °C 1006 hPa Calm     56% 0 mm 0.0 W/m2
05:44 15.7 °C 7.2 °C 1006 hPa Calm     57% 0 mm 0.0 W/m2
05:50 15.8 °C 7.3 °C 1006 hPa Calm     57% 0 mm 0.0 W/m2
05:55 15.8 °C 7.3 °C 1006.3 hPa Calm     57% 0 mm 0.0 W/m2
06:00 15.7 °C 7.2 °C 1006.3 hPa Calm     57% 0 mm 0.0 W/m2
06:09 15.7 °C 7.2 °C 1006.3 hPa Calm     57% 0 mm 5.0 W/m2
06:52 16.4 °C 7.6 °C 1006.7 hPa Calm     56% 0 mm 111.0 W/m2
07:37 18.9 °C 4.3 °C 1007.3 hPa SSW 7.9 km/h 9.7 km/h 38% 0 mm 292.0 W/m2
07:52 19.3 °C 5.7 °C 1007.3 hPa SSW 7.9 km/h 8 km/h 41% 0 mm 343.0 W/m2
08:06 19.6 °C 5.6 °C 1007.3 hPa SSW 6.4 km/h 8 km/h 40% 0 mm 396.0 W/m2
08:17 20.2 °C 4.6 °C 1007.3 hPa SSW 7.9 km/h 8 km/h 36% 0 mm 432.0 W/m2
08:33 21.1 °C 2.4 °C 1007.3 hPa SSW 6.4 km/h 11.3 km/h 29% 0 mm 485.0 W/m2
09:03 22.3 °C 2.9 °C 1007.3 hPa Calm     28% 0 mm 582.0 W/m2
09:18 22.7 °C 3.2 °C 1007.3 hPa Calm     28% 0 mm 628.0 W/m2
09:31 23.4 °C 1.7 °C 1007.3 hPa Calm     24% 0 mm 671.0 W/m2
09:39 23.8 °C 2 °C 1007.3 hPa Calm     24% 0 mm 701.0 W/m2
09:44 24 °C 2.2 °C 1007.3 hPa Calm     24% 0 mm 717.0 W/m2
09:50 24.2 °C 1.1 °C 1007 hPa Calm     22% 0 mm 733.0 W/m2
09:54 24.6 °C 2.1 °C 1007.3 hPa Calm     23% 0 mm 742.0 W/m2
10:04 25.1 °C -3.4 °C 1007 hPa Calm     15% 0 mm 770.0 W/m2
10:09 25.4 °C -2.3 °C 1007 hPa Calm     16% 0 mm 784.0 W/m2
10:19 25.8 °C 0.4 °C 1007 hPa Calm     19% 0 mm 807.0 W/m2
10:29 26 °C -1.8 °C 1007 hPa Calm     16% 0 mm 830.0 W/m2
10:35 26.1 °C -0.9 °C 1006.7 hPa Calm     17% 0 mm 837.0 W/m2
10:45 26.4 °C -1.4 °C 1006.7 hPa Calm     16% 0 mm 863.0 W/m2
10:51 26.4 °C -2.3 °C 1006.3 hPa Calm     15% 0 mm 874.0 W/m2
11:41 27.5 °C -4.4 °C 1006.3 hPa SSW 13 km/h 17.7 km/h 12% 0 mm 933.0 W/m2
12:32 28.4 °C -4.9 °C 1005.6 hPa SSW 4.7 km/h 22.5 km/h 11% 0 mm 954.0 W/m2
13:31 29.6 °C -4 °C 1005 hPa SSW 20.9 km/h 22.5 km/h 11% 0 mm 928.0 W/m2
13:46 29.7 °C -8.1 °C 1005 hPa SSW 20.9 km/h 25.7 km/h 8% 0 mm 916.0 W/m2
14:17 30 °C -7.9 °C 1004.6 hPa SSW 16.3 km/h 17.7 km/h 8% 0 mm 872.0 W/m2
14:42 30.1 °C -9.5 °C 1004.6 hPa SSW 16.3 km/h 20.9 km/h 7% 0 mm 823.0 W/m2
15:13 30.2 °C -9.4 °C 1004.6 hPa SSW 13 km/h 22.5 km/h 7% 0 mm 752.0 W/m2
15:28 30.5 °C -9.2 °C 1004.6 hPa SSW 16.3 km/h 25.7 km/h 7% 0 mm 715.0 W/m2
15:44 30.1 °C -7.8 °C 1004.6 hPa SSW 24.1 km/h 27.4 km/h 8% 0 mm 673.0 W/m2
16:00 30.1 °C -7.8 °C 1004.3 hPa SSW 24.1 km/h 29 km/h 8% 0 mm 628.0 W/m2
16:21 30.1 °C -6.3 °C 1004.3 hPa SSW 27.4 km/h 32.2 km/h 9% 0 mm 564.0 W/m2
16:42 29.6 °C -6.6 °C 1004.3 hPa SSW 20.9 km/h 30.6 km/h 9% 0 mm 497.0 W/m2
17:02 29.5 °C -11.9 °C 1004.3 hPa South 22.7 km/h 30.6 km/h 6% 0 mm 429.0 W/m2
17:30 29.1 °C -10.2 °C 1004.3 hPa SSW 25.9 km/h 25.9 km/h 7% 0 mm 309.0 W/m2
17:39 28.8 °C -10.4 °C 1004.6 hPa South 27.4 km/h 33.8 km/h 7% 0 mm 272.0 W/m2
17:45 28.7 °C -10.5 °C 1004.6 hPa SSW 28.8 km/h 29 km/h 7% 0 mm 255.0 W/m2
17:53 28.4 °C -9 °C 1004.6 hPa SSW 20.9 km/h 27.4 km/h 8% 0 mm 216.0 W/m2
18:00 28.4 °C -10.7 °C 1004.6 hPa South 25.9 km/h 25.9 km/h 7% 0 mm 193.0 W/m2
18:28 27.6 °C -6.8 °C 1005 hPa South 22.7 km/h 29 km/h 10% 0 mm 97.0 W/m2
18:42 27.2 °C -4.7 °C 1005.3 hPa SSW 22.7 km/h 25.7 km/h 12% 0 mm 47.0 W/m2
18:52 26.7 °C -5.1 °C 1005.6 hPa SSW 19.5 km/h 27.4 km/h 12% 0 mm 21.0 W/m2
19:01 26.3 °C -3.3 °C 1005.6 hPa SSW 22.7 km/h 27.4 km/h 14% 0 mm 12.0 W/m2
19:13 25.9 °C -1 °C 1005.6 hPa SSW 13 km/h 24.1 km/h 17% 0 mm 7.0 W/m2
19:28 25.2 °C -2.4 °C 1006 hPa SSW 17.7 km/h 24.1 km/h 16% 0 mm 0.0 W/m2
19:44 24.5 °C -5.7 °C 1006.3 hPa SSW 19.5 km/h 20.9 km/h 13% 0 mm 0.0 W/m2
20:00 24 °C -2.6 °C 1006.7 hPa SSW 17.7 km/h 19.3 km/h 17% 0 mm 0.0 W/m2
20:30 23.3 °C -2.4 °C 1007 hPa SSW 16.3 km/h 24.1 km/h 18% 0 mm 0.0 W/m2
21:16 22.2 °C -2.5 °C 1007.7 hPa South 22.7 km/h 29 km/h 19% 0 mm 0.0 W/m2
21:31 22 °C -4.2 °C 1007.7 hPa South 19.5 km/h 24.1 km/h 17% 0 mm 0.0 W/m2
22:00 21.6 °C -3.7 °C 1008 hPa South 13 km/h 13 km/h 18% 0 mm 0.0 W/m2
22:15 21.3 °C -3.3 °C 1008 hPa South 13 km/h 14.5 km/h 19% 0 mm 0.0 W/m2
22:34 20.9 °C -2.9 °C 1008 hPa South 11.1 km/h 17.7 km/h 20% 0 mm 0.0 W/m2
22:43 20.7 °C -3.1 °C 1008 hPa South 11.1 km/h 12.9 km/h 20% 0 mm 0.0 W/m2
22:51 20.4 °C -2.7 °C 1008 hPa South 9.7 km/h 14.5 km/h 21% 0 mm 0.0 W/m2
23:01 20.3 °C -2.1 °C 1008 hPa South 7.9 km/h 11.3 km/h 22% 0 mm 0.0 W/m2
23:06 20.1 °C -2.3 °C 1008 hPa South 9.7 km/h 16.1 km/h 22% 0 mm 0.0 W/m2
23:11 20.1 °C -2.3 °C 1008 hPa South 13 km/h 13 km/h 22% 0 mm 0.0 W/m2
23:21 19.8 °C -1.9 °C 1008.4 hPa South 9.7 km/h 11.3 km/h 23% 0 mm 0.0 W/m2
23:31 19.6 °C -1.5 °C 1008.4 hPa South 9.7 km/h 11.3 km/h 24% 0 mm 0.0 W/m2
23:41 19.3 °C -1.8 °C 1008.4 hPa South 6.4 km/h 9.7 km/h 24% 0 mm 0.0 W/m2
23:46 19.2 °C -1.3 °C 1008.4 hPa South 4.7 km/h 6.4 km/h 25% 0 mm 0.0 W/m2
23:51 19 °C -1.5 °C 1008.4 hPa South 6.4 km/h 8 km/h 25% 0 mm 0.0 W/m2
Canyon Roadhouse, Fishriver Canyon, Namibia
Compliments of Weather Underground - 2.25 mb